createdAt,value
2024-02-19T00:02:16.426Z,102829.13
2024-02-19T00:04:43.241Z,102817.56
2024-02-19T00:07:09.873Z,102823.16
2024-02-19T00:09:36.505Z,102823.53
2024-02-19T00:12:03.123Z,102820.38
2024-02-19T00:14:29.663Z,102825.13
2024-02-19T00:16:56.083Z,102830.72
2024-02-19T00:19:22.708Z,102832.38
2024-02-19T00:21:49.345Z,102829.94
2024-02-19T00:24:15.862Z,102833.53
2024-02-19T00:26:42.294Z,102835.16
2024-02-19T00:29:08.905Z,102837.50
2024-02-19T00:31:35.601Z,102843.94
2024-02-19T00:34:02.254Z,102847.44
2024-02-19T00:36:29.325Z,102837.06
2024-02-19T00:38:55.904Z,102840.63
2024-02-19T00:41:23.471Z,102844.56
2024-02-19T00:43:50.125Z,102842.16
2024-02-19T00:46:16.926Z,102839.34
2024-02-19T00:48:43.720Z,102835.78
2024-02-19T00:51:10.411Z,102846.13
2024-02-19T00:53:40.190Z,102836.56
2024-02-19T00:56:07.058Z,102833.75
2024-02-19T00:58:33.508Z,102843.34
2024-02-19T01:01:00.099Z,102840.53
2024-02-19T01:03:27.207Z,102846.94
2024-02-19T01:05:53.731Z,102848.13
2024-02-19T01:08:20.440Z,102852.88
2024-02-19T01:10:46.925Z,102858.13
2024-02-19T01:13:14.173Z,102848.94
2024-02-19T01:15:40.672Z,102853.25
2024-02-19T01:18:07.183Z,102868.88
2024-02-19T01:20:33.686Z,102863.66
2024-02-19T01:23:00.204Z,102859.66
2024-02-19T01:25:26.776Z,102858.84
2024-02-19T01:27:53.530Z,102870.41
2024-02-19T01:30:20.107Z,102862.84
2024-02-19T01:32:46.619Z,102866.81
2024-02-19T01:35:13.397Z,102868.44
2024-02-19T01:37:40.982Z,102860.41
2024-02-19T01:40:10.782Z,102861.22
2024-02-19T01:42:37.797Z,102854.81
2024-02-19T01:45:06.696Z,102854.91
2024-02-19T01:47:35.345Z,102856.06
2024-02-19T01:50:02.130Z,102833.28
2024-02-19T01:52:29.390Z,102835.69
2024-02-19T01:54:56.497Z,102838.50
2024-02-19T01:57:23.122Z,102840.91
2024-02-19T01:59:49.661Z,102839.72
2024-02-19T02:02:17.932Z,102834.13
2024-02-19T02:04:44.458Z,102849.75
2024-02-19T02:07:10.994Z,102848.94
2024-02-19T02:09:37.895Z,102860.50
2024-02-19T02:12:04.658Z,102862.03
2024-02-19T02:14:31.144Z,102866.81
2024-02-19T02:16:57.538Z,102873.56
2024-02-19T02:19:24.074Z,102871.97
2024-02-19T02:21:50.655Z,102870.34
2024-02-19T02:24:17.111Z,102863.97
2024-02-19T02:26:46.170Z,102867.53
2024-02-19T02:29:12.648Z,102875.13
2024-02-19T02:31:39.029Z,102857.53
2024-02-19T02:34:06.282Z,102860.34
2024-02-19T02:36:32.832Z,102850.34
2024-02-19T02:38:59.266Z,102847.59
2024-02-19T02:41:25.712Z,102849.59
2024-02-19T02:43:52.240Z,102849.59
2024-02-19T02:46:18.824Z,102866.00
2024-02-19T02:48:45.509Z,102869.63
2024-02-19T02:51:12.734Z,102865.94
2024-02-19T02:53:39.201Z,102865.94
2024-02-19T02:56:06.317Z,102872.72
2024-02-19T02:58:34.420Z,102863.13
2024-02-19T03:01:01.982Z,102859.53
2024-02-19T03:03:33.989Z,102849.97
2024-02-19T03:06:00.916Z,102851.13
2024-02-19T03:08:27.299Z,102860.34
2024-02-19T03:10:53.974Z,102864.31
2024-02-19T03:13:20.499Z,102869.56
2024-02-19T03:15:47.031Z,102861.16
2024-02-19T03:18:13.710Z,102852.78
2024-02-19T03:20:40.832Z,102855.56
2024-02-19T03:23:07.539Z,102860.34
2024-02-19T03:25:33.935Z,102860.34
2024-02-19T03:28:00.551Z,102857.16
2024-02-19T03:30:30.741Z,102850.75
2024-02-19T03:33:01.801Z,102854.00
2024-02-19T03:35:28.446Z,102854.00
2024-02-19T03:37:54.910Z,102857.63
2024-02-19T03:40:21.430Z,102860.78
2024-02-19T03:42:48.570Z,102858.38
2024-02-19T03:45:15.156Z,102857.16
2024-02-19T03:47:42.925Z,102867.16
2024-02-19T03:50:09.637Z,102865.19
2024-02-19T03:52:36.442Z,102862.41
2024-02-19T03:55:03.087Z,102871.22
2024-02-19T03:57:30.197Z,102865.19
2024-02-19T03:59:56.666Z,102862.75
2024-02-19T04:02:25.172Z,102866.38
2024-02-19T04:04:51.768Z,102850.75
2024-02-19T04:07:18.239Z,102854.00
2024-02-19T04:09:44.699Z,102851.22
2024-02-19T04:12:11.207Z,102842.81
2024-02-19T04:14:44.425Z,102838.88
2024-02-19T04:17:10.909Z,102830.03
2024-02-19T04:19:37.423Z,102837.22
2024-02-19T04:22:04.093Z,102840.03
2024-02-19T04:24:30.704Z,102847.59
2024-02-19T04:26:57.135Z,102845.63
2024-02-19T04:29:23.544Z,102847.25
2024-02-19T04:31:49.993Z,102846.06
2024-02-19T04:34:16.605Z,102847.25
2024-02-19T04:36:43.251Z,102834.44
2024-02-19T04:39:09.751Z,102832.81
2024-02-19T04:41:38.845Z,102826.41
2024-02-19T04:44:05.333Z,102822.81
2024-02-19T04:46:34.973Z,102824.81
2024-02-19T04:49:01.606Z,102825.59
2024-02-19T04:51:29.558Z,102836.78
2024-02-19T04:53:56.108Z,102844.00
2024-02-19T04:56:22.515Z,102848.41
2024-02-19T04:58:48.902Z,102846.81
2024-02-19T05:01:15.501Z,102854.38
2024-02-19T05:03:41.953Z,102839.56
2024-02-19T05:06:08.514Z,102847.97
2024-02-19T05:08:35.019Z,102847.97
2024-02-19T05:11:01.462Z,102848.34
2024-02-19T05:13:28.105Z,102844.38
2024-02-19T05:15:54.609Z,102847.19
2024-02-19T05:18:21.139Z,102844.00
2024-02-19T05:20:48.169Z,102844.00
2024-02-19T05:23:14.676Z,102834.81
2024-02-19T05:25:41.083Z,102834.81
2024-02-19T05:28:07.594Z,102833.19
2024-02-19T05:30:34.116Z,102837.97
2024-02-19T05:33:00.700Z,102832.38
2024-02-19T05:35:27.198Z,102837.97
2024-02-19T05:37:53.887Z,102836.78
2024-02-19T05:40:20.591Z,102830.78
2024-02-19T05:42:47.610Z,102831.56
2024-02-19T05:45:14.130Z,102839.22
2024-02-19T05:47:40.703Z,102837.22
2024-02-19T05:50:07.694Z,102831.63
2024-02-19T05:52:34.218Z,102833.63
2024-02-19T05:55:03.306Z,102835.63
2024-02-19T05:57:29.787Z,102834.00
2024-02-19T05:59:59.655Z,102834.44
2024-02-19T06:02:26.529Z,102842.00
2024-02-19T06:04:53.135Z,102834.81
2024-02-19T06:07:19.658Z,102827.59
2024-02-19T06:09:46.257Z,102835.63
2024-02-19T06:12:12.722Z,102839.22
2024-02-19T06:14:39.144Z,102841.22
2024-02-19T06:17:05.548Z,102838.03
2024-02-19T06:19:32.037Z,102834.44
2024-02-19T06:21:58.509Z,102834.88
2024-02-19T06:24:24.931Z,102838.88
2024-02-19T06:26:51.361Z,102838.88
2024-02-19T06:29:17.850Z,102833.69
2024-02-19T06:31:47.184Z,102834.88
2024-02-19T06:34:13.782Z,102829.28
2024-02-19T06:36:41.395Z,102819.28
2024-02-19T06:39:08.185Z,102822.13
2024-02-19T06:41:34.691Z,102824.94
2024-02-19T06:44:01.152Z,102825.75
2024-02-19T06:46:27.586Z,102813.75
2024-02-19T06:48:54.348Z,102819.00
2024-02-19T06:51:20.877Z,102820.59
2024-02-19T06:53:47.405Z,102821.78
2024-02-19T06:56:13.849Z,102830.50
2024-02-19T06:58:40.225Z,102827.72
2024-02-19T07:01:06.889Z,102835.69
2024-02-19T07:03:33.466Z,102834.88
2024-02-19T07:05:59.950Z,102826.88
2024-02-19T07:08:26.590Z,102830.47
2024-02-19T07:10:53.567Z,102846.06
2024-02-19T07:13:20.106Z,102833.69
2024-02-19T07:15:46.784Z,102826.94
2024-02-19T07:18:14.351Z,102828.53
2024-02-19T07:20:41.039Z,102834.13
2024-02-19T07:23:07.732Z,102830.88
2024-02-19T07:25:34.387Z,102829.34
2024-02-19T07:28:00.933Z,102835.78
2024-02-19T07:30:27.428Z,102838.97
2024-02-19T07:32:53.946Z,102838.63
2024-02-19T07:35:20.443Z,102829.88
2024-02-19T07:37:47.304Z,102830.28
2024-02-19T07:40:13.821Z,102826.78
2024-02-19T07:42:40.306Z,102833.59
2024-02-19T07:45:07.361Z,102822.03
2024-02-19T07:47:34.247Z,102824.91
2024-02-19T07:50:00.770Z,102830.94
2024-02-19T07:52:27.255Z,102839.41
2024-02-19T07:54:53.796Z,102835.41
2024-02-19T07:57:20.222Z,102822.69
2024-02-19T07:59:47.005Z,102830.69
2024-02-19T08:02:13.657Z,102825.16
2024-02-19T08:04:40.330Z,102825.25
2024-02-19T08:07:06.912Z,102828.88
2024-02-19T08:09:33.363Z,102826.97
2024-02-19T08:12:00.761Z,102828.63
2024-02-19T08:14:27.641Z,102830.34
2024-02-19T08:16:54.160Z,102845.56
2024-02-19T08:19:20.909Z,102841.63
2024-02-19T08:21:48.680Z,102847.69
2024-02-19T08:24:15.851Z,102846.91
2024-02-19T08:26:42.393Z,102848.19
2024-02-19T08:29:08.839Z,102847.84
2024-02-19T08:31:35.325Z,102852.72
2024-02-19T08:34:01.917Z,102846.34
2024-02-19T08:36:28.523Z,102852.00
2024-02-19T08:38:55.565Z,102857.22
2024-02-19T08:41:22.672Z,102857.63
2024-02-19T08:43:49.143Z,102859.63
2024-02-19T08:46:17.254Z,102856.38
2024-02-19T08:48:44.569Z,102852.75
2024-02-19T08:51:11.384Z,102853.16
2024-02-19T08:53:37.939Z,102852.75
2024-02-19T08:56:04.745Z,102848.81
2024-02-19T08:58:32.329Z,102853.22
2024-02-19T09:01:00.600Z,102851.59
2024-02-19T09:03:27.769Z,102848.81
2024-02-19T09:05:54.396Z,102843.59
2024-02-19T09:08:21.036Z,102849.66
2024-02-19T09:10:47.477Z,102850.09
2024-02-19T09:13:14.041Z,102852.13
2024-02-19T09:15:40.486Z,102850.22
2024-02-19T09:18:07.157Z,102847.84
2024-02-19T09:20:34.619Z,102845.88
2024-02-19T09:23:01.567Z,102846.31
2024-02-19T09:25:28.321Z,102853.97
2024-02-19T09:27:55.059Z,102854.41
2024-02-19T09:30:21.560Z,102855.28
2024-02-19T09:32:48.009Z,102855.69
2024-02-19T09:35:14.802Z,102847.28
2024-02-19T09:37:41.362Z,102844.91
2024-02-19T09:40:08.904Z,102848.59
2024-02-19T09:42:36.644Z,102850.63
2024-02-19T09:45:03.928Z,102847.50
2024-02-19T09:47:31.150Z,102844.38
2024-02-19T09:49:58.758Z,102852.03
2024-02-19T09:52:29.819Z,102843.63
2024-02-19T09:54:57.065Z,102836.41
2024-02-19T09:57:24.067Z,102845.19
2024-02-19T09:59:50.958Z,102850.84
2024-02-19T10:02:20.833Z,102845.63
2024-02-19T10:04:50.576Z,102839.22
2024-02-19T10:07:19.555Z,102842.78
2024-02-19T10:09:47.906Z,102843.56
2024-02-19T10:12:14.356Z,102842.78
2024-02-19T10:14:40.827Z,102846.00
2024-02-19T10:17:07.435Z,102841.56
2024-02-19T10:19:34.051Z,102832.00
2024-02-19T10:22:00.588Z,102827.19
2024-02-19T10:24:27.573Z,102818.00
2024-02-19T10:26:54.025Z,102822.41
2024-02-19T10:29:22.497Z,102828.44
2024-02-19T10:31:49.097Z,102820.47
2024-02-19T10:34:17.305Z,102824.44
2024-02-19T10:36:45.649Z,102813.59
2024-02-19T10:39:12.404Z,102801.19
2024-02-19T10:41:39.982Z,102809.25
2024-02-19T10:44:06.905Z,102806.06
2024-02-19T10:46:33.801Z,102810.91
2024-02-19T10:49:00.502Z,102805.28
2024-02-19T10:51:27.045Z,102803.72
2024-02-19T10:54:04.307Z,102799.75
2024-02-19T10:56:44.270Z,102798.09
2024-02-19T10:59:12.888Z,102801.34
2024-02-19T11:02:02.847Z,102796.56
2024-02-19T11:04:33.933Z,102784.56
2024-02-19T11:07:02.568Z,102788.63
2024-02-19T11:09:33.968Z,102776.63
2024-02-19T11:12:01.846Z,102779.44
2024-02-19T11:14:29.544Z,102773.44
2024-02-19T11:16:58.075Z,102769.44
2024-02-19T11:19:25.566Z,102763.88
2024-02-19T11:22:06.001Z,102764.31
2024-02-19T11:24:32.714Z,102770.34
2024-02-19T11:26:59.378Z,102753.53
2024-02-19T11:29:33.543Z,102749.91
2024-02-19T11:32:10.898Z,102749.16
2024-02-19T11:34:37.713Z,102747.59
2024-02-19T11:37:05.614Z,102750.03
2024-02-19T11:39:33.158Z,102749.63
2024-02-19T11:41:59.888Z,102743.59
2024-02-19T11:44:27.408Z,102737.22
2024-02-19T11:46:55.211Z,102736.44
2024-02-19T11:49:25.302Z,102733.19
2024-02-19T11:52:01.378Z,102730.00
2024-02-19T11:54:38.002Z,102729.19
2024-02-19T11:57:06.238Z,102731.59
2024-02-19T11:59:33.567Z,102726.38
2024-02-19T12:02:00.070Z,102727.56
2024-02-19T12:04:29.498Z,102725.91
2024-02-19T12:06:56.159Z,102732.69
2024-02-19T12:09:22.700Z,102715.44
2024-02-19T12:11:49.196Z,102703.03
2024-02-19T12:14:18.530Z,102711.88
2024-02-19T12:16:47.129Z,102709.91
2024-02-19T12:19:13.874Z,102705.47
2024-02-19T12:21:43.339Z,102708.75
2024-02-19T12:24:11.938Z,102713.53
2024-02-19T12:26:39.386Z,102712.38
2024-02-19T12:29:05.851Z,102707.53
2024-02-19T12:31:32.372Z,102697.53
2024-02-19T12:33:59.074Z,102699.94
2024-02-19T12:36:25.773Z,102694.38
2024-02-19T12:38:53.914Z,102691.19
2024-02-19T12:41:20.460Z,102686.78
2024-02-19T12:43:46.998Z,102684.78
2024-02-19T12:46:15.632Z,102684.00
2024-02-19T12:48:43.496Z,102682.44
2024-02-19T12:51:12.454Z,102678.06
2024-02-19T12:53:39.040Z,102672.88
2024-02-19T12:56:08.823Z,102666.44
2024-02-19T12:58:35.324Z,102659.59
2024-02-19T13:01:07.208Z,102665.59
2024-02-19T13:03:40.498Z,102658.38
2024-02-19T13:06:11.576Z,102651.13
2024-02-19T13:08:39.404Z,102652.78
2024-02-19T13:11:06.256Z,102660.75
2024-02-19T13:13:32.817Z,102659.94
2024-02-19T13:15:59.822Z,102651.09
2024-02-19T13:18:26.609Z,102649.09
2024-02-19T13:20:57.730Z,102655.81
2024-02-19T13:23:24.492Z,102657.78
2024-02-19T13:25:50.995Z,102654.16
2024-02-19T13:28:17.583Z,102659.72
2024-02-19T13:30:44.890Z,102652.91
2024-02-19T13:33:11.887Z,102660.94
2024-02-19T13:35:39.261Z,102662.88
2024-02-19T13:38:06.659Z,102651.28
2024-02-19T13:40:33.690Z,102654.47
2024-02-19T13:43:00.415Z,102661.63
2024-02-19T13:45:48.491Z,102664.44
2024-02-19T13:48:14.966Z,102657.63
2024-02-19T13:50:41.494Z,102669.94
2024-02-19T13:53:11.772Z,102663.53
2024-02-19T13:55:38.196Z,102666.69
2024-02-19T13:58:05.040Z,102663.88
2024-02-19T14:00:31.632Z,102663.44
2024-02-19T14:02:58.091Z,102656.59
2024-02-19T14:05:25.284Z,102662.56
2024-02-19T14:07:54.484Z,102668.94
2024-02-19T14:10:20.956Z,102652.91
2024-02-19T14:12:47.487Z,102657.69
2024-02-19T14:15:14.710Z,102656.88
2024-02-19T14:17:41.186Z,102657.28
2024-02-19T14:20:09.016Z,102652.06
2024-02-19T14:22:36.324Z,102657.66
2024-02-19T14:25:02.945Z,102663.59
2024-02-19T14:27:29.714Z,102648.72
2024-02-19T14:29:56.159Z,102657.13
2024-02-19T14:32:22.728Z,102645.91
2024-02-19T14:34:49.336Z,102654.66
2024-02-19T14:37:16.907Z,102649.06
2024-02-19T14:39:44.421Z,102653.50
2024-02-19T14:42:10.943Z,102662.72
2024-02-19T14:44:37.524Z,102655.50
2024-02-19T14:47:07.196Z,102659.09
2024-02-19T14:49:34.427Z,102653.06
2024-02-19T14:52:01.546Z,102661.47
2024-02-19T14:54:28.135Z,102655.06
2024-02-19T14:56:55.879Z,102659.47
2024-02-19T14:59:22.392Z,102659.88
2024-02-19T15:01:49.102Z,102654.28
2024-02-19T15:04:15.915Z,102653.47
2024-02-19T15:06:42.563Z,102661.47
2024-02-19T15:09:11.216Z,102663.47
2024-02-19T15:11:38.405Z,102649.44
2024-02-19T15:14:05.544Z,102648.66
2024-02-19T15:16:32.137Z,102654.28
2024-02-19T15:18:59.489Z,102653.84
2024-02-19T15:21:26.983Z,102649.41
2024-02-19T15:23:54.813Z,102649.41
2024-02-19T15:26:22.710Z,102649.78
2024-02-19T15:28:49.193Z,102652.59
2024-02-19T15:31:15.676Z,102650.94
2024-02-19T15:33:42.378Z,102648.13
2024-02-19T15:36:11.444Z,102654.94
2024-02-19T15:38:39.516Z,102660.94
2024-02-19T15:41:10.925Z,102649.75
2024-02-19T15:43:37.695Z,102642.53
2024-02-19T15:46:06.170Z,102651.72
2024-02-19T15:48:33.847Z,102645.69
2024-02-19T15:51:00.736Z,102647.66
2024-02-19T15:53:29.165Z,102652.88
2024-02-19T15:55:59.478Z,102644.47
2024-02-19T15:58:26.329Z,102646.09
2024-02-19T16:00:53.063Z,102639.75
2024-02-19T16:03:19.636Z,102647.72
2024-02-19T16:05:46.464Z,102650.06
2024-02-19T16:08:34.880Z,102653.25
2024-02-19T16:11:04.881Z,102652.47
2024-02-19T16:13:32.575Z,102655.63
2024-02-19T16:15:59.871Z,102651.22
2024-02-19T16:18:31.317Z,102652.03
2024-02-19T16:20:57.749Z,102643.59
2024-02-19T16:23:24.228Z,102653.59
2024-02-19T16:25:51.644Z,102654.78
2024-02-19T16:28:18.361Z,102648.75
2024-02-19T16:30:46.689Z,102652.38
2024-02-19T16:33:13.463Z,102645.97
2024-02-19T16:35:40.317Z,102652.31
2024-02-19T16:38:10.444Z,102652.31
2024-02-19T16:40:38.301Z,102655.13
2024-02-19T16:43:06.261Z,102660.28
2024-02-19T16:45:35.467Z,102661.06
2024-02-19T16:48:03.793Z,102671.44
2024-02-19T16:50:34.548Z,102670.63
2024-02-19T16:53:01.126Z,102682.59
2024-02-19T16:55:27.605Z,102673.69
2024-02-19T16:57:54.203Z,102682.47
2024-02-19T17:00:21.629Z,102678.88
2024-02-19T17:02:48.097Z,102684.88
2024-02-19T17:05:14.731Z,102686.41
2024-02-19T17:07:42.894Z,102694.38
2024-02-19T17:10:10.903Z,102706.31
2024-02-19T17:12:37.366Z,102705.88
2024-02-19T17:15:04.007Z,102701.53
2024-02-19T17:17:30.451Z,102710.66
2024-02-19T17:19:57.306Z,102704.66
2024-02-19T17:22:23.891Z,102715.03
2024-02-19T17:24:50.359Z,102720.63
2024-02-19T17:27:16.817Z,102733.03
2024-02-19T17:29:43.559Z,102732.16
2024-02-19T17:32:10.199Z,102730.09
2024-02-19T17:34:37.974Z,102738.50
2024-02-19T17:37:05.298Z,102740.50
2024-02-19T17:39:32.418Z,102744.84
2024-02-19T17:41:58.945Z,102745.56
2024-02-19T17:44:25.649Z,102744.72
2024-02-19T17:46:53.117Z,102744.59
2024-02-19T17:49:19.914Z,102747.72
2024-02-19T17:51:46.638Z,102746.06
2024-02-19T17:54:14.906Z,102743.66
2024-02-19T17:56:41.461Z,102758.09
2024-02-19T17:59:12.795Z,102754.84
2024-02-19T18:01:39.667Z,102764.81
2024-02-19T18:04:06.284Z,102761.56
2024-02-19T18:06:33.735Z,102763.84
2024-02-19T18:09:01.725Z,102759.00
2024-02-19T18:11:28.324Z,102767.78
2024-02-19T18:13:55.276Z,102778.88
2024-02-19T18:16:25.066Z,102778.81
2024-02-19T18:18:51.763Z,102779.94
2024-02-19T18:21:18.683Z,102784.97
2024-02-19T18:23:45.169Z,102786.53
2024-02-19T18:26:13.000Z,102794.84
2024-02-19T18:28:39.602Z,102793.97
2024-02-19T18:31:11.245Z,102794.34
2024-02-19T18:33:38.604Z,102794.72
2024-02-19T18:36:08.047Z,102799.84
2024-02-19T18:38:35.389Z,102803.38
2024-02-19T18:41:04.534Z,102803.38
2024-02-19T18:43:31.584Z,102800.97
2024-02-19T18:46:01.063Z,102806.94
2024-02-19T18:48:29.616Z,102814.13
2024-02-19T18:50:56.640Z,102806.19
2024-02-19T18:53:23.428Z,102801.03
2024-02-19T18:56:01.467Z,102809.06
2024-02-19T18:58:29.698Z,102820.69
2024-02-19T19:01:01.210Z,102815.88
2024-02-19T19:03:28.964Z,102812.72
2024-02-19T19:05:59.762Z,102812.78
2024-02-19T19:08:27.626Z,102808.47
2024-02-19T19:10:54.281Z,102818.81
2024-02-19T19:13:21.559Z,102810.44
2024-02-19T19:15:51.210Z,102823.22
2024-02-19T19:18:17.911Z,102829.63
2024-02-19T19:20:44.488Z,102823.22
2024-02-19T19:23:11.083Z,102820.88
2024-02-19T19:25:38.858Z,102832.44
2024-02-19T19:28:05.542Z,102828.03
2024-02-19T19:30:32.023Z,102835.53
2024-02-19T19:32:59.591Z,102832.28
2024-02-19T19:35:27.923Z,102838.69
2024-02-19T19:37:54.456Z,102839.06
2024-02-19T19:40:21.077Z,102848.97
2024-02-19T19:42:48.075Z,102839.72
2024-02-19T19:45:15.575Z,102844.41
2024-02-19T19:47:42.763Z,102844.34
2024-02-19T19:50:10.121Z,102846.25
2024-02-19T19:52:38.018Z,102852.56
2024-02-19T19:55:05.366Z,102846.91
2024-02-19T19:57:34.626Z,102846.03
2024-02-19T20:00:01.290Z,102839.16
2024-02-19T20:02:27.986Z,102849.91
2024-02-19T20:04:56.454Z,102852.63
2024-02-19T20:07:24.266Z,102853.34
2024-02-19T20:09:50.754Z,102856.88
2024-02-19T20:12:20.146Z,102859.16
2024-02-19T20:14:46.792Z,102858.69
2024-02-19T20:17:19.766Z,102863.00
2024-02-19T20:19:46.428Z,102860.59
2024-02-19T20:22:12.917Z,102871.31
2024-02-19T20:24:39.344Z,102865.63
2024-02-19T20:27:05.809Z,102866.38
2024-02-19T20:29:32.287Z,102867.09
2024-02-19T20:32:04.615Z,102867.00
2024-02-19T20:34:34.121Z,102876.66
2024-02-19T20:37:01.194Z,102875.47
2024-02-19T20:39:28.097Z,102873.50
2024-02-19T20:41:54.622Z,102881.06
2024-02-19T20:44:21.016Z,102871.50
2024-02-19T20:46:47.823Z,102876.66
2024-02-19T20:49:14.357Z,102878.63
2024-02-19T20:51:42.881Z,102882.16
2024-02-19T20:54:09.489Z,102882.06
2024-02-19T20:56:35.919Z,102884.41
2024-02-19T20:59:02.391Z,102888.38
2024-02-19T21:01:30.847Z,102893.50
2024-02-19T21:03:57.370Z,102892.69
2024-02-19T21:06:23.842Z,102891.50
2024-02-19T21:08:50.301Z,102891.16
2024-02-19T21:11:16.803Z,102896.03
2024-02-19T21:13:43.813Z,102899.59
2024-02-19T21:16:11.143Z,102898.81
2024-02-19T21:18:46.511Z,102902.06
2024-02-19T21:21:21.929Z,102905.28
2024-02-19T21:23:56.357Z,102910.16
2024-02-19T21:26:23.006Z,102910.06
2024-02-19T21:28:50.354Z,102901.16
2024-02-19T21:31:17.555Z,102903.47
2024-02-19T21:33:44.519Z,102901.41
2024-02-19T21:36:11.347Z,102916.47
2024-02-19T21:38:37.964Z,102916.72
2024-02-19T21:41:04.605Z,102913.38
2024-02-19T21:43:31.216Z,102908.53
2024-02-19T21:45:57.891Z,102902.84
2024-02-19T21:48:24.448Z,102914.81
2024-02-19T21:50:51.432Z,102910.06
2024-02-19T21:53:18.133Z,102909.94
2024-02-19T21:55:44.558Z,102917.44
2024-02-19T21:58:11.324Z,102913.81
2024-02-19T22:00:38.075Z,102920.03
2024-02-19T22:03:04.633Z,102920.28
2024-02-19T22:05:32.245Z,102920.56
2024-02-19T22:07:59.991Z,102928.00
2024-02-19T22:10:26.738Z,102926.75
2024-02-19T22:12:53.995Z,102931.50
2024-02-19T22:15:20.449Z,102936.28
2024-02-19T22:17:46.989Z,102933.38
2024-02-19T22:20:13.575Z,102936.06
2024-02-19T22:22:40.595Z,102939.81
2024-02-19T22:25:08.322Z,102938.94
2024-02-19T22:27:34.822Z,102943.22
2024-02-19T22:30:01.942Z,102954.72
2024-02-19T22:32:29.344Z,102958.25
2024-02-19T22:34:55.953Z,102954.63
2024-02-19T22:37:22.518Z,102964.16
2024-02-19T22:39:48.975Z,102958.91
2024-02-19T22:42:15.390Z,102964.75
2024-02-19T22:44:41.918Z,102955.59
2024-02-19T22:47:08.562Z,102954.78
2024-02-19T22:49:37.156Z,102960.69
2024-02-19T22:52:04.013Z,102963.03
2024-02-19T22:54:32.072Z,102949.34
2024-02-19T22:56:59.060Z,102957.00
2024-02-19T22:59:25.742Z,102963.84
2024-02-19T23:01:53.065Z,102963.50
2024-02-19T23:04:20.728Z,102959.09
2024-02-19T23:06:47.169Z,102954.66
2024-02-19T23:09:14.191Z,102959.34
2024-02-19T23:11:41.359Z,102950.75
2024-02-19T23:14:08.191Z,102944.00
2024-02-19T23:16:34.712Z,102951.56
2024-02-19T23:19:01.366Z,102955.16
2024-02-19T23:21:27.918Z,102961.44
2024-02-19T23:23:54.399Z,102969.81
2024-02-19T23:26:20.955Z,102962.59
2024-02-19T23:28:47.631Z,102963.75
2024-02-19T23:31:14.114Z,102965.28
2024-02-19T23:33:40.893Z,102975.63
2024-02-19T23:36:09.367Z,102979.53
2024-02-19T23:38:35.975Z,102987.47
2024-02-19T23:41:02.648Z,102973.44
2024-02-19T23:43:29.677Z,102976.09
2024-02-19T23:45:56.407Z,102974.81
2024-02-19T23:48:23.031Z,102966.81
2024-02-19T23:50:49.836Z,102974.03
2024-02-19T23:53:16.569Z,102969.94
2024-02-19T23:55:43.615Z,102971.91
2024-02-19T23:58:11.612Z,102972.63
